createdAt,value
2019-05-01T00:01:01.542Z,16.00
2019-05-01T00:03:35.344Z,16.00
2019-05-01T00:06:07.089Z,16.00
2019-05-01T00:08:36.105Z,16.00
2019-05-01T00:11:06.088Z,16.00
2019-05-01T00:13:35.176Z,16.00
2019-05-01T00:16:04.108Z,16.00
2019-05-01T00:18:33.127Z,16.00
2019-05-01T00:21:02.210Z,15.90
2019-05-01T00:23:31.168Z,15.80
2019-05-01T00:26:00.189Z,15.80
2019-05-01T00:28:29.203Z,15.80
2019-05-01T00:30:58.655Z,15.70
2019-05-01T00:33:27.656Z,15.70
2019-05-01T00:35:56.754Z,15.60
2019-05-01T00:38:25.831Z,15.50
2019-05-01T00:40:54.867Z,15.50
2019-05-01T00:43:23.805Z,15.60
2019-05-01T00:45:52.747Z,15.50
2019-05-01T00:48:22.104Z,15.50
2019-05-01T00:50:51.115Z,15.40
2019-05-01T00:53:20.119Z,15.40
2019-05-01T00:55:50.714Z,15.40
2019-05-01T00:58:37.683Z,15.40
2019-05-01T01:01:10.981Z,15.30
2019-05-01T01:03:40.765Z,15.30
2019-05-01T01:06:10.263Z,15.30
2019-05-01T01:08:39.273Z,15.30
2019-05-01T01:11:08.412Z,15.20
2019-05-01T01:13:37.359Z,15.20
2019-05-01T01:16:06.364Z,15.20
2019-05-01T01:18:35.398Z,15.20
2019-05-01T01:21:04.489Z,15.30
2019-05-01T01:23:33.581Z,15.30
2019-05-01T01:26:02.610Z,15.30
2019-05-01T01:28:31.624Z,15.20
2019-05-01T01:31:00.699Z,15.20
2019-05-01T01:33:29.731Z,15.20
2019-05-01T01:35:58.673Z,15.20
2019-05-01T01:38:30.463Z,15.20
2019-05-01T01:40:59.459Z,15.20
2019-05-01T01:43:48.796Z,15.10
2019-05-01T01:46:22.335Z,15.20
2019-05-01T01:48:51.348Z,15.20
2019-05-01T01:51:20.421Z,15.10
2019-05-01T01:53:49.385Z,15.00
2019-05-01T01:56:18.320Z,15.00
2019-05-01T01:58:47.334Z,15.00
2019-05-01T02:01:24.011Z,15.00
2019-05-01T02:04:04.099Z,14.90
2019-05-01T02:06:33.176Z,14.90
2019-05-01T02:09:02.200Z,15.00
2019-05-01T02:11:32.827Z,15.00
2019-05-01T02:14:01.837Z,15.00
2019-05-01T02:16:30.865Z,15.00
2019-05-01T02:18:59.800Z,15.00
2019-05-01T02:21:28.904Z,14.90
2019-05-01T02:23:58.189Z,14.90
2019-05-01T02:26:28.847Z,14.90
2019-05-01T02:29:11.291Z,14.90
2019-05-01T02:31:44.424Z,14.80
2019-05-01T02:34:13.459Z,14.70
2019-05-01T02:36:42.821Z,14.70
2019-05-01T02:39:11.774Z,14.60
2019-05-01T02:41:41.817Z,14.70
2019-05-01T02:44:12.525Z,14.70
2019-05-01T02:46:42.313Z,14.70
2019-05-01T02:49:13.361Z,14.60
2019-05-01T02:51:42.390Z,14.60
2019-05-01T02:54:11.410Z,14.50
2019-05-01T02:56:54.103Z,14.50
2019-05-01T02:59:23.182Z,14.50
2019-05-01T03:01:52.231Z,14.50
2019-05-01T03:04:21.167Z,14.50
2019-05-01T03:06:50.613Z,14.50
2019-05-01T03:09:19.992Z,14.50
2019-05-01T03:11:49.317Z,14.50
2019-05-01T03:14:18.665Z,14.40
2019-05-01T03:16:48.252Z,14.40
2019-05-01T03:19:24.814Z,14.40
2019-05-01T03:21:55.544Z,14.40
2019-05-01T03:24:26.256Z,14.30
2019-05-01T03:26:55.650Z,14.20
2019-05-01T03:29:24.656Z,14.00
2019-05-01T03:32:15.575Z,13.90
2019-05-01T03:34:24.249Z,13.90
2019-05-01T03:36:53.204Z,13.90
2019-05-01T03:39:22.149Z,13.90
2019-05-01T03:41:51.143Z,14.00
2019-05-01T03:44:20.156Z,14.00
2019-05-01T03:46:49.092Z,14.00
2019-05-01T03:49:18.478Z,14.00
2019-05-01T03:51:47.440Z,14.00
2019-05-01T03:54:16.515Z,14.00
2019-05-01T03:56:45.541Z,14.00
2019-05-01T03:59:14.621Z,13.90
2019-05-01T04:01:45.205Z,13.90
2019-05-01T04:04:18.623Z,13.90
2019-05-01T04:06:47.634Z,13.90
2019-05-01T04:09:16.674Z,13.90
2019-05-01T04:11:45.746Z,13.90
2019-05-01T04:14:14.826Z,13.80
2019-05-01T04:16:45.417Z,13.70
2019-05-01T04:19:14.370Z,13.80
2019-05-01T04:21:54.003Z,13.80
2019-05-01T04:24:22.998Z,13.80
2019-05-01T04:26:52.015Z,13.80
2019-05-01T04:29:22.621Z,13.80
2019-05-01T04:31:59.337Z,13.70
2019-05-01T04:34:48.091Z,13.80
2019-05-01T04:37:18.647Z,13.80
2019-05-01T04:39:47.624Z,13.80
2019-05-01T04:42:16.546Z,13.80
2019-05-01T04:44:45.559Z,13.80
2019-05-01T04:47:14.522Z,13.80
2019-05-01T04:49:43.473Z,13.90
2019-05-01T04:52:12.430Z,13.90
2019-05-01T04:54:41.361Z,13.90
2019-05-01T04:57:10.411Z,13.90
2019-05-01T04:59:40.510Z,14.00
2019-05-01T05:02:11.174Z,14.00
2019-05-01T05:04:40.547Z,14.20
2019-05-01T05:07:09.665Z,14.50
2019-05-01T05:09:42.693Z,14.70
2019-05-01T05:12:31.736Z,14.90
2019-05-01T05:15:06.560Z,15.20
2019-05-01T05:17:35.645Z,15.50
2019-05-01T05:20:05.634Z,15.80
2019-05-01T05:22:35.045Z,16.10
2019-05-01T05:25:04.874Z,16.20
2019-05-01T05:27:34.251Z,16.60
2019-05-01T05:30:03.266Z,16.80
2019-05-01T05:32:33.245Z,17.00
2019-05-01T05:35:03.644Z,17.00
2019-05-01T05:37:44.160Z,17.40
2019-05-01T05:40:13.276Z,17.60
2019-05-01T05:42:43.062Z,17.80
2019-05-01T05:45:13.485Z,18.00
2019-05-01T05:47:43.344Z,18.10
2019-05-01T05:50:16.282Z,18.40
2019-05-01T05:52:48.231Z,18.60
2019-05-01T05:55:20.544Z,18.90
2019-05-01T05:57:57.798Z,19.00
2019-05-01T06:00:41.339Z,19.10
2019-05-01T06:03:31.361Z,19.20
2019-05-01T06:06:09.485Z,19.40
2019-05-01T06:08:39.597Z,19.60
2019-05-01T06:11:29.738Z,19.80
2019-05-01T06:14:05.993Z,20.10
2019-05-01T06:16:46.786Z,20.60
2019-05-01T06:19:25.517Z,20.70
2019-05-01T06:22:13.159Z,20.90
2019-05-01T06:24:47.393Z,21.10
2019-05-01T06:27:17.193Z,21.40
2019-05-01T06:29:47.080Z,21.50
2019-05-01T06:32:17.016Z,21.90
2019-05-01T06:34:46.899Z,22.30
2019-05-01T06:37:20.910Z,22.50
2019-05-01T06:39:49.853Z,22.90
2019-05-01T06:42:20.830Z,23.00
2019-05-01T06:44:52.286Z,23.00
2019-05-01T06:47:43.040Z,23.20
2019-05-01T06:50:32.042Z,23.30
2019-05-01T06:53:04.639Z,23.60
2019-05-01T06:55:33.722Z,23.50
2019-05-01T06:58:03.583Z,23.60
2019-05-01T07:00:33.467Z,24.10
2019-05-01T07:03:05.955Z,24.00
2019-05-01T07:05:34.940Z,24.10
2019-05-01T07:08:04.939Z,24.20
2019-05-01T07:10:43.519Z,24.40
2019-05-01T07:13:06.761Z,24.60
2019-05-01T07:15:38.057Z,24.80
2019-05-01T07:18:07.929Z,25.10
2019-05-01T07:20:51.455Z,25.20
2019-05-01T07:23:19.852Z,25.40
2019-05-01T07:25:49.727Z,25.60
2019-05-01T07:28:19.682Z,25.60
2019-05-01T07:30:54.916Z,25.80
2019-05-01T07:33:22.700Z,25.90
2019-05-01T07:35:54.072Z,26.00
2019-05-01T07:38:24.125Z,26.20
2019-05-01T07:40:53.993Z,26.40
2019-05-01T07:43:34.983Z,26.40
2019-05-01T07:46:09.529Z,26.60
2019-05-01T07:48:41.722Z,26.80
2019-05-01T07:51:11.398Z,27.10
2019-05-01T07:53:40.906Z,27.00
2019-05-01T07:56:10.980Z,26.70
2019-05-01T07:58:40.015Z,26.30
2019-05-01T08:01:18.098Z,25.90
2019-05-01T08:03:44.105Z,24.80
2019-05-01T08:06:16.347Z,23.70
2019-05-01T08:08:43.752Z,23.30
2019-05-01T08:11:12.766Z,23.20
2019-05-01T08:13:41.908Z,23.30
2019-05-01T08:16:11.486Z,23.60
2019-05-01T08:18:47.913Z,23.50
2019-05-01T08:21:27.615Z,23.30
2019-05-01T08:23:56.793Z,23.30
2019-05-01T08:26:25.824Z,23.50
2019-05-01T08:28:56.470Z,23.50
2019-05-01T08:31:27.798Z,23.00
2019-05-01T08:34:08.493Z,23.20
2019-05-01T08:36:37.577Z,23.50
2019-05-01T08:39:09.186Z,23.30
2019-05-01T08:41:37.786Z,23.30
2019-05-01T08:44:07.789Z,23.50
2019-05-01T08:46:50.851Z,23.90
2019-05-01T08:49:19.783Z,23.80
2019-05-01T08:51:48.803Z,23.90
2019-05-01T08:54:17.749Z,23.80
2019-05-01T08:56:46.694Z,24.00
2019-05-01T08:59:19.342Z,25.10
2019-05-01T09:01:50.631Z,25.00
2019-05-01T09:04:18.784Z,24.50
2019-05-01T09:06:47.536Z,24.40
2019-05-01T09:09:16.494Z,24.30
2019-05-01T09:11:45.511Z,24.20
2019-05-01T09:14:14.616Z,24.60
2019-05-01T09:16:43.622Z,24.80
2019-05-01T09:19:12.658Z,24.90
2019-05-01T09:21:41.660Z,24.80
2019-05-01T09:24:10.600Z,24.50
2019-05-01T09:26:45.356Z,24.40
2019-05-01T09:29:21.466Z,24.30
2019-05-01T09:31:51.347Z,24.70
2019-05-01T09:34:21.194Z,24.90
2019-05-01T09:36:51.031Z,25.60
2019-05-01T09:39:21.350Z,26.40
2019-05-01T09:41:51.144Z,26.40
2019-05-01T09:44:21.095Z,25.70
2019-05-01T09:46:50.961Z,25.40
2019-05-01T09:49:21.632Z,25.50
2019-05-01T09:52:12.215Z,25.20
2019-05-01T09:54:47.900Z,24.90
2019-05-01T09:57:17.581Z,24.40
2019-05-01T09:59:47.786Z,24.60
2019-05-01T10:02:17.731Z,24.20
2019-05-01T10:04:46.887Z,23.90
2019-05-01T10:07:15.892Z,23.90
2019-05-01T10:09:47.287Z,23.80
2019-05-01T10:12:15.548Z,23.70
2019-05-01T10:14:44.553Z,23.90
2019-05-01T10:17:13.649Z,24.00
2019-05-01T10:19:42.687Z,24.10
2019-05-01T10:22:11.628Z,24.30
2019-05-01T10:24:41.324Z,23.80
2019-05-01T10:27:12.868Z,23.80
2019-05-01T10:30:01.574Z,24.20
2019-05-01T10:32:34.468Z,23.80
2019-05-01T10:35:19.313Z,24.10
2019-05-01T10:37:45.011Z,23.30
2019-05-01T10:40:13.959Z,23.20
2019-05-01T10:42:42.973Z,23.40
2019-05-01T10:45:11.977Z,23.50
2019-05-01T10:47:40.928Z,23.30
2019-05-01T10:50:09.884Z,23.60
2019-05-01T10:52:39.167Z,23.40
2019-05-01T10:55:08.178Z,23.90
2019-05-01T10:57:40.262Z,23.70
2019-05-01T11:00:08.908Z,23.70
2019-05-01T11:02:39.913Z,23.40
2019-05-01T11:05:09.708Z,23.80
2019-05-01T11:07:39.639Z,23.70
2019-05-01T11:10:09.572Z,23.80
2019-05-01T11:12:39.384Z,23.40
2019-05-01T11:15:09.754Z,23.40
2019-05-01T11:17:39.635Z,23.20
2019-05-01T11:20:09.884Z,23.30
2019-05-01T11:22:39.603Z,23.30
2019-05-01T11:25:10.194Z,23.00
2019-05-01T11:27:40.128Z,22.90
2019-05-01T11:30:10.187Z,22.70
2019-05-01T11:32:41.728Z,22.80
2019-05-01T11:35:27.986Z,22.90
2019-05-01T11:37:58.893Z,23.10
2019-05-01T11:40:30.235Z,23.20
2019-05-01T11:43:02.733Z,23.20
2019-05-01T11:45:31.351Z,23.10
2019-05-01T11:48:01.068Z,23.60
2019-05-01T11:50:33.978Z,23.20
2019-05-01T11:53:03.867Z,22.80
2019-05-01T11:55:33.806Z,23.30
2019-05-01T11:58:03.682Z,23.30
2019-05-01T12:00:33.499Z,23.00
2019-05-01T12:03:02.601Z,23.30
2019-05-01T12:05:32.695Z,23.30
2019-05-01T12:08:02.511Z,23.40
2019-05-01T12:10:32.448Z,22.90
2019-05-01T12:13:02.312Z,23.10
2019-05-01T12:15:32.195Z,23.10
2019-05-01T12:18:02.079Z,23.40
2019-05-01T12:20:31.923Z,23.30
2019-05-01T12:23:01.725Z,23.20
2019-05-01T12:25:31.915Z,22.90
2019-05-01T12:28:01.848Z,22.90
2019-05-01T12:30:31.644Z,23.20
2019-05-01T12:33:01.454Z,23.00
2019-05-01T12:35:31.380Z,23.30
2019-05-01T12:38:03.901Z,23.50
2019-05-01T12:40:33.692Z,23.60
2019-05-01T12:43:03.981Z,23.90
2019-05-01T12:45:33.922Z,23.20
2019-05-01T12:48:05.383Z,23.10
2019-05-01T12:50:35.264Z,23.30
2019-05-01T12:53:06.789Z,23.40
2019-05-01T12:55:40.956Z,23.70
2019-05-01T12:58:10.756Z,23.70
2019-05-01T13:00:52.637Z,23.30
2019-05-01T13:03:22.513Z,22.90
2019-05-01T13:05:52.308Z,23.10
2019-05-01T13:08:22.185Z,23.10
2019-05-01T13:10:52.040Z,23.40
2019-05-01T13:13:21.933Z,23.60
2019-05-01T13:15:52.210Z,23.50
2019-05-01T13:18:22.009Z,23.20
2019-05-01T13:20:51.891Z,22.90
2019-05-01T13:23:21.808Z,22.90
2019-05-01T13:25:53.620Z,23.30
2019-05-01T13:28:40.571Z,23.40
2019-05-01T13:31:12.008Z,23.30
2019-05-01T13:33:41.972Z,23.20
2019-05-01T13:36:11.845Z,23.40
2019-05-01T13:38:41.784Z,23.20
2019-05-01T13:41:11.585Z,23.30
2019-05-01T13:43:41.394Z,23.10
2019-05-01T13:46:11.208Z,23.10
2019-05-01T13:48:41.082Z,22.50
2019-05-01T13:51:10.948Z,23.10
2019-05-01T13:53:41.816Z,22.70
2019-05-01T13:56:11.980Z,22.40
2019-05-01T13:58:41.879Z,22.70
2019-05-01T14:01:11.198Z,22.50
2019-05-01T14:03:40.901Z,22.10
2019-05-01T14:06:10.032Z,22.40
2019-05-01T14:08:39.289Z,22.50
2019-05-01T14:11:08.284Z,22.20
2019-05-01T14:13:37.968Z,22.10
2019-05-01T14:16:07.882Z,22.20
2019-05-01T14:18:37.094Z,22.10
2019-05-01T14:21:25.869Z,22.10
2019-05-01T14:24:12.766Z,22.00
2019-05-01T14:26:41.763Z,22.10
2019-05-01T14:29:11.076Z,22.00
2019-05-01T14:31:40.023Z,22.00
2019-05-01T14:34:09.728Z,22.40
2019-05-01T14:36:39.072Z,22.50
2019-05-01T14:39:08.022Z,22.30
2019-05-01T14:41:38.567Z,22.10
2019-05-01T14:44:07.592Z,22.10
2019-05-01T14:46:36.593Z,22.10
2019-05-01T14:49:05.982Z,22.10
2019-05-01T14:51:34.942Z,22.20
2019-05-01T14:54:04.801Z,22.30
2019-05-01T14:56:33.923Z,22.50
2019-05-01T14:59:03.003Z,22.40
2019-05-01T15:01:31.993Z,22.10
2019-05-01T15:04:01.120Z,22.00
2019-05-01T15:06:30.137Z,22.00
2019-05-01T15:08:59.115Z,22.30
2019-05-01T15:11:28.125Z,22.10
2019-05-01T15:13:58.787Z,22.00
2019-05-01T15:16:38.328Z,22.10
2019-05-01T15:19:15.210Z,22.00
2019-05-01T15:21:44.924Z,22.10
2019-05-01T15:24:14.096Z,22.00
2019-05-01T15:26:43.125Z,22.00
2019-05-01T15:29:12.075Z,22.20
2019-05-01T15:31:41.171Z,22.30
2019-05-01T15:34:10.236Z,22.20
2019-05-01T15:36:39.210Z,22.10
2019-05-01T15:39:10.344Z,22.00
2019-05-01T15:41:46.781Z,22.10
2019-05-01T15:44:23.291Z,22.30
2019-05-01T15:46:53.269Z,22.30
2019-05-01T15:49:23.154Z,22.40
2019-05-01T15:51:53.020Z,22.50
2019-05-01T15:54:22.887Z,22.60
2019-05-01T15:56:52.752Z,22.50
2019-05-01T15:59:21.895Z,22.40
2019-05-01T16:01:53.916Z,22.50
2019-05-01T16:04:23.758Z,22.40
2019-05-01T16:06:53.308Z,22.40
2019-05-01T16:09:22.388Z,22.40
2019-05-01T16:11:53.947Z,22.30
2019-05-01T16:14:23.808Z,22.30
2019-05-01T16:16:53.749Z,22.20
2019-05-01T16:22:28.396Z,22.50
2019-05-01T16:24:58.282Z,22.30
2019-05-01T16:27:28.230Z,22.30
2019-05-01T16:29:58.092Z,22.30
2019-05-01T16:32:28.041Z,22.30
2019-05-01T16:34:57.936Z,22.30
2019-05-01T16:37:27.796Z,22.30
2019-05-01T16:39:59.317Z,22.40
2019-05-01T16:42:34.122Z,22.20
2019-05-01T16:45:05.323Z,22.10
2019-05-01T16:47:35.189Z,22.10
2019-05-01T16:50:08.163Z,22.10
2019-05-01T16:52:39.996Z,21.90
2019-05-01T16:55:09.967Z,22.00
2019-05-01T16:57:39.826Z,22.00
2019-05-01T17:00:12.257Z,22.00
2019-05-01T17:02:46.489Z,22.00
2019-05-01T17:05:30.039Z,21.90
2019-05-01T17:08:03.586Z,21.90
2019-05-01T17:10:34.874Z,21.90
2019-05-01T17:13:07.117Z,21.90
2019-05-01T17:15:44.755Z,21.80
2019-05-01T17:18:15.321Z,21.70
2019-05-01T17:20:45.120Z,21.90
2019-05-01T17:23:14.937Z,21.90
2019-05-01T17:25:44.872Z,21.80
2019-05-01T17:28:16.453Z,21.90
2019-05-01T17:30:49.376Z,21.80
2019-05-01T17:33:20.626Z,21.80
2019-05-01T17:35:50.664Z,21.80
2019-05-01T17:38:20.474Z,21.70
2019-05-01T17:40:51.971Z,21.70
2019-05-01T17:43:21.883Z,21.60
2019-05-01T17:45:52.070Z,21.60
2019-05-01T17:48:21.956Z,21.60
2019-05-01T17:50:55.059Z,21.50
2019-05-01T17:53:22.313Z,21.60
2019-05-01T17:55:51.511Z,21.60
2019-05-01T17:58:20.541Z,21.60
2019-05-01T18:01:01.078Z,21.60
2019-05-01T18:03:35.743Z,21.60
2019-05-01T18:06:13.467Z,21.50
2019-05-01T18:08:43.418Z,21.50
2019-05-01T18:11:14.149Z,21.40
2019-05-01T18:13:44.801Z,21.30
2019-05-01T18:16:14.621Z,21.20
2019-05-01T18:18:44.583Z,21.10
2019-05-01T18:21:14.544Z,21.20
2019-05-01T18:24:01.207Z,20.90
2019-05-01T18:26:49.761Z,20.80
2019-05-01T18:29:27.389Z,20.80
2019-05-01T18:31:57.331Z,20.90
2019-05-01T18:34:26.720Z,21.00
2019-05-01T18:37:09.814Z,20.80
2019-05-01T18:39:42.971Z,20.50
2019-05-01T18:42:13.549Z,20.30
2019-05-01T18:44:47.567Z,20.20
2019-05-01T18:47:14.907Z,20.10
2019-05-01T18:49:44.776Z,20.00
2019-05-01T18:52:14.763Z,20.00
2019-05-01T18:54:44.723Z,19.90
2019-05-01T18:57:14.753Z,19.80
2019-05-01T18:59:44.560Z,19.70
2019-05-01T19:02:14.436Z,19.70
2019-05-01T19:04:44.304Z,19.60
2019-05-01T19:07:14.316Z,19.50
2019-05-01T19:09:44.191Z,19.40
2019-05-01T19:12:15.292Z,19.40
2019-05-01T19:14:45.179Z,19.30
2019-05-01T19:17:14.976Z,19.40
2019-05-01T19:19:44.939Z,19.30
2019-05-01T19:22:14.758Z,19.20
2019-05-01T19:24:44.637Z,19.20
2019-05-01T19:27:18.917Z,19.60
2019-05-01T19:29:46.394Z,19.80
2019-05-01T19:32:16.726Z,19.50
2019-05-01T19:34:47.861Z,19.40
2019-05-01T19:37:21.982Z,19.20
2019-05-01T19:39:53.789Z,19.10
2019-05-01T19:42:22.070Z,19.00
2019-05-01T19:44:56.148Z,18.90
2019-05-01T19:47:22.258Z,18.90
2019-05-01T19:49:54.265Z,19.00
2019-05-01T19:52:21.849Z,19.00
2019-05-01T19:54:50.911Z,19.10
2019-05-01T19:57:21.565Z,19.00
2019-05-01T19:59:50.588Z,19.00
2019-05-01T20:02:22.197Z,19.00
2019-05-01T20:04:52.455Z,19.10
2019-05-01T20:07:21.727Z,19.10
2019-05-01T20:09:57.051Z,19.00
2019-05-01T20:12:22.748Z,18.90
2019-05-01T20:14:53.531Z,18.90
2019-05-01T20:17:23.335Z,18.70
2019-05-01T20:19:53.532Z,18.60
2019-05-01T20:22:23.722Z,18.70
2019-05-01T20:24:53.627Z,18.60
2019-05-01T20:27:23.423Z,18.60
2019-05-01T20:29:53.300Z,18.60
2019-05-01T20:32:26.200Z,18.50
2019-05-01T20:34:54.823Z,18.50
2019-05-01T20:37:24.686Z,18.40
2019-05-01T20:39:54.625Z,18.40
2019-05-01T20:42:24.777Z,18.50
2019-05-01T20:45:04.346Z,18.40
2019-05-01T20:47:34.854Z,18.40
2019-05-01T20:49:57.847Z,18.50
2019-05-01T20:52:27.657Z,18.40
2019-05-01T20:54:56.856Z,18.40
2019-05-01T20:57:36.758Z,18.30
2019-05-01T21:00:11.221Z,18.20
2019-05-01T21:02:43.041Z,18.10
2019-05-01T21:05:18.516Z,18.20
2019-05-01T21:08:05.297Z,18.10
2019-05-01T21:10:49.814Z,18.10
2019-05-01T21:13:07.619Z,18.10
2019-05-01T21:15:37.728Z,18.10
2019-05-01T21:18:07.496Z,18.10
2019-05-01T21:20:37.664Z,17.90
2019-05-01T21:23:10.472Z,17.80
2019-05-01T21:25:38.917Z,17.90
2019-05-01T21:28:08.783Z,17.90
2019-05-01T21:30:43.980Z,17.90
2019-05-01T21:33:13.425Z,17.80
2019-05-01T21:35:41.282Z,17.80
2019-05-01T21:38:10.217Z,17.80
2019-05-01T21:40:41.151Z,17.80
2019-05-01T21:43:09.800Z,17.90
2019-05-01T21:45:39.564Z,17.90
2019-05-01T21:48:09.433Z,17.70
2019-05-01T21:50:38.626Z,17.80
2019-05-01T21:53:08.398Z,17.70
2019-05-01T21:55:37.536Z,17.70
2019-05-01T21:58:06.554Z,17.70
2019-05-01T22:00:39.981Z,17.60
2019-05-01T22:03:10.502Z,17.50
2019-05-01T22:05:40.942Z,17.40
2019-05-01T22:08:10.895Z,17.50
2019-05-01T22:10:51.424Z,17.50
2019-05-01T22:13:10.789Z,17.40
2019-05-01T22:15:48.908Z,17.30
2019-05-01T22:18:28.451Z,17.30
2019-05-01T22:20:59.027Z,17.40
2019-05-01T22:23:32.314Z,17.40
2019-05-01T22:26:02.267Z,17.30
2019-05-01T22:28:33.616Z,17.20
2019-05-01T22:31:32.762Z,17.20
2019-05-01T22:34:25.664Z,17.20
2019-05-01T22:36:55.761Z,17.20
2019-05-01T22:39:28.807Z,17.30
2019-05-01T22:41:58.632Z,17.30
2019-05-01T22:44:28.446Z,17.20
2019-05-01T22:46:58.409Z,17.10
2019-05-01T22:49:28.340Z,17.20
2019-05-01T22:51:58.204Z,17.10
2019-05-01T22:54:28.027Z,17.00
2019-05-01T22:56:58.180Z,17.00
2019-05-01T22:59:28.127Z,17.10
2019-05-01T23:02:15.364Z,16.90
2019-05-01T23:04:48.298Z,16.90
2019-05-01T23:07:16.733Z,16.90
2019-05-01T23:09:47.125Z,16.80
2019-05-01T23:12:16.135Z,16.70
2019-05-01T23:14:45.147Z,16.70
2019-05-01T23:17:16.776Z,16.70
2019-05-01T23:19:46.640Z,16.70
2019-05-01T23:22:16.617Z,16.70
2019-05-01T23:24:46.498Z,16.60
2019-05-01T23:27:16.325Z,16.60
2019-05-01T23:29:46.189Z,16.50
2019-05-01T23:32:16.076Z,16.60
2019-05-01T23:34:45.387Z,16.50
2019-05-01T23:37:14.328Z,16.50
2019-05-01T23:39:44.036Z,16.40
2019-05-01T23:42:14.258Z,16.50
2019-05-01T23:44:44.231Z,16.60
2019-05-01T23:47:15.247Z,16.60
2019-05-01T23:49:47.720Z,16.60
2019-05-01T23:52:16.691Z,16.50
2019-05-01T23:54:46.627Z,16.40
2019-05-01T23:57:18.871Z,16.30
2019-05-01T23:59:48.076Z,16.30
